createdAt,value
2018-03-04T00:01:44.832Z,51.60
2018-03-04T00:04:12.359Z,50.15
2018-03-04T00:06:40.766Z,39.72
2018-03-04T00:09:08.280Z,54.65
2018-03-04T00:11:35.814Z,50.85
2018-03-04T00:14:03.385Z,50.15
2018-03-04T00:16:31.016Z,43.38
2018-03-04T00:18:58.658Z,51.85
2018-03-04T00:21:26.238Z,50.40
2018-03-04T00:23:53.782Z,58.00
2018-03-04T00:26:21.347Z,56.53
2018-03-04T00:28:49.818Z,53.38
2018-03-04T00:31:18.094Z,45.45
2018-03-04T00:33:46.382Z,56.70
2018-03-04T00:36:13.894Z,54.15
2018-03-04T00:38:41.503Z,54.30
2018-03-04T00:41:09.026Z,50.63
2018-03-04T00:43:36.541Z,57.70
2018-03-04T00:46:04.065Z,54.35
2018-03-04T00:48:32.765Z,51.40
2018-03-04T00:51:00.309Z,52.83
2018-03-04T00:53:28.658Z,50.95
2018-03-04T00:55:56.363Z,49.15
2018-03-04T00:58:23.909Z,55.92
2018-03-04T01:00:52.213Z,53.40
2018-03-04T01:03:19.780Z,53.92
2018-03-04T01:05:47.337Z,49.60
2018-03-04T01:08:14.869Z,55.83
2018-03-04T01:10:43.213Z,60.55
2018-03-04T01:13:10.919Z,57.83
2018-03-04T01:15:39.521Z,61.20
2018-03-04T01:18:07.065Z,57.58
2018-03-04T01:20:35.563Z,63.28
2018-03-04T01:23:03.326Z,51.37
2018-03-04T01:25:30.897Z,47.55
2018-03-04T01:27:58.637Z,55.47
2018-03-04T01:30:27.072Z,45.17
2018-03-04T01:32:54.658Z,54.30
2018-03-04T01:35:22.495Z,54.08
2018-03-04T01:37:50.131Z,58.67
2018-03-04T01:40:17.705Z,55.12
2018-03-04T01:42:45.460Z,54.72
2018-03-04T01:45:13.240Z,50.47
2018-03-04T01:47:40.765Z,59.13
2018-03-04T01:50:08.736Z,50.05
2018-03-04T01:52:36.271Z,62.22
2018-03-04T01:55:03.859Z,61.37
2018-03-04T01:57:31.427Z,62.60
2018-03-04T01:59:58.977Z,59.33
2018-03-04T02:02:26.486Z,59.78
2018-03-04T02:04:54.139Z,58.87
2018-03-04T02:07:21.699Z,53.35
2018-03-04T02:09:49.217Z,60.20
2018-03-04T02:12:16.805Z,58.97
2018-03-04T02:14:44.361Z,57.88
2018-03-04T02:17:12.006Z,61.25
2018-03-04T02:19:39.532Z,54.50
2018-03-04T02:22:07.126Z,56.10
2018-03-04T02:24:34.686Z,69.25
2018-03-04T02:27:02.199Z,41.92
2018-03-04T02:29:29.733Z,64.35
2018-03-04T02:31:57.348Z,58.55
2018-03-04T02:34:25.662Z,63.53
2018-03-04T02:36:53.336Z,57.38
2018-03-04T02:39:20.895Z,66.47
2018-03-04T02:41:48.563Z,61.75
2018-03-04T02:44:16.084Z,62.55
2018-03-04T02:46:43.598Z,62.20
2018-03-04T02:49:11.161Z,57.38
2018-03-04T02:51:38.674Z,64.93
2018-03-04T02:54:06.228Z,61.58
2018-03-04T02:56:34.103Z,66.43
2018-03-04T02:59:01.659Z,52.15
2018-03-04T03:01:29.224Z,61.20
2018-03-04T03:03:56.747Z,63.92
2018-03-04T03:06:24.715Z,55.28
2018-03-04T03:08:52.319Z,68.12
2018-03-04T03:11:20.108Z,66.78
2018-03-04T03:13:47.857Z,56.90
2018-03-04T03:16:15.418Z,66.12
2018-03-04T03:18:42.966Z,68.43
2018-03-04T03:21:10.554Z,58.65
2018-03-04T03:23:38.079Z,56.25
2018-03-04T03:26:06.460Z,64.90
2018-03-04T03:28:33.990Z,63.37
2018-03-04T03:31:01.660Z,57.35
2018-03-04T03:33:29.142Z,59.47
2018-03-04T03:35:56.726Z,66.47
2018-03-04T03:38:24.297Z,72.87
2018-03-04T03:40:51.827Z,65.50
2018-03-04T03:43:19.397Z,70.20
2018-03-04T03:45:46.927Z,67.10
2018-03-04T03:48:15.365Z,58.20
2018-03-04T03:50:42.907Z,62.55
2018-03-04T03:53:10.417Z,58.72
2018-03-04T03:55:38.014Z,63.78
2018-03-04T03:58:05.561Z,65.53
2018-03-04T04:00:33.834Z,57.33
2018-03-04T04:03:02.867Z,60.58
2018-03-04T04:05:42.548Z,68.90
2018-03-04T04:08:10.166Z,67.10
2018-03-04T04:10:37.725Z,69.28
2018-03-04T04:13:05.432Z,68.03
2018-03-04T04:15:33.045Z,70.25
2018-03-04T04:18:00.646Z,74.10
2018-03-04T04:20:28.204Z,65.20
2018-03-04T04:22:55.833Z,71.28
2018-03-04T04:25:23.400Z,74.87
2018-03-04T04:27:50.943Z,62.60
2018-03-04T04:30:18.457Z,72.18
2018-03-04T04:32:46.013Z,65.82
2018-03-04T04:35:13.674Z,70.65
2018-03-04T04:37:41.300Z,66.87
2018-03-04T04:40:08.828Z,79.10
2018-03-04T04:42:37.133Z,81.68
2018-03-04T04:45:04.687Z,62.67
2018-03-04T04:47:32.244Z,75.10
2018-03-04T04:49:59.816Z,77.87
2018-03-04T04:52:27.331Z,70.72
2018-03-04T04:54:54.923Z,65.22
2018-03-04T04:57:22.487Z,72.62
2018-03-04T04:59:50.049Z,71.85
2018-03-04T05:02:17.611Z,58.53
2018-03-04T05:04:45.136Z,73.37
2018-03-04T05:07:13.724Z,62.25
2018-03-04T05:09:42.306Z,72.93
2018-03-04T05:12:10.633Z,70.45
2018-03-04T05:14:38.159Z,76.12
2018-03-04T05:17:06.476Z,83.30
2018-03-04T05:19:34.075Z,71.93
2018-03-04T05:22:01.616Z,84.37
2018-03-04T05:24:29.237Z,80.93
2018-03-04T05:26:56.835Z,83.00
2018-03-04T05:29:24.456Z,82.20
2018-03-04T05:31:51.973Z,79.62
2018-03-04T05:34:19.515Z,78.50
2018-03-04T05:36:47.067Z,87.78
2018-03-04T05:39:14.599Z,92.25
2018-03-04T05:41:42.172Z,84.05
2018-03-04T05:44:09.733Z,73.78
2018-03-04T05:46:37.297Z,91.47
2018-03-04T05:49:04.851Z,77.43
2018-03-04T05:51:32.428Z,86.32
2018-03-04T05:53:59.963Z,70.25
2018-03-04T05:56:27.495Z,88.03
2018-03-04T05:58:55.806Z,74.68
2018-03-04T06:01:23.341Z,75.05
2018-03-04T06:03:51.668Z,77.87
2018-03-04T06:06:19.201Z,83.57
2018-03-04T06:08:46.779Z,72.93
2018-03-04T06:11:14.322Z,87.80
2018-03-04T06:13:42.016Z,72.30
2018-03-04T06:16:09.914Z,82.00
2018-03-04T06:18:38.947Z,83.15
2018-03-04T06:21:07.660Z,80.47
2018-03-04T06:23:36.013Z,100.62
2018-03-04T06:26:03.581Z,93.30
2018-03-04T06:28:31.138Z,110.35
2018-03-04T06:30:58.703Z,125.57
2018-03-04T06:33:26.282Z,166.57
2018-03-04T06:35:53.923Z,173.00
2018-03-04T06:38:21.508Z,173.77
2018-03-04T06:40:49.076Z,176.80
2018-03-04T06:43:16.610Z,150.50
2018-03-04T06:45:44.191Z,153.50
2018-03-04T06:48:11.749Z,135.00
2018-03-04T06:50:39.312Z,144.98
2018-03-04T06:53:06.852Z,160.25
2018-03-04T06:55:35.028Z,138.57
2018-03-04T06:58:03.379Z,121.28
2018-03-04T07:00:31.670Z,105.93
2018-03-04T07:02:59.350Z,99.65
2018-03-04T07:05:26.888Z,95.20
2018-03-04T07:07:54.412Z,79.90
2018-03-04T07:10:22.797Z,87.15
2018-03-04T07:12:50.370Z,68.47
2018-03-04T07:15:18.674Z,92.78
2018-03-04T07:17:46.214Z,77.12
2018-03-04T07:20:14.507Z,78.05
2018-03-04T07:22:42.030Z,65.47
2018-03-04T07:25:09.576Z,89.28
2018-03-04T07:27:37.204Z,78.72
2018-03-04T07:30:04.720Z,80.82
2018-03-04T07:32:32.331Z,89.55
2018-03-04T07:34:59.898Z,85.55
2018-03-04T07:37:27.523Z,76.57
2018-03-04T07:39:55.880Z,89.60
2018-03-04T07:42:24.281Z,82.68
2018-03-04T07:44:52.720Z,86.57
2018-03-04T07:47:20.388Z,69.65
2018-03-04T07:49:48.137Z,90.12
2018-03-04T07:52:15.794Z,85.20
2018-03-04T07:54:43.324Z,90.85
2018-03-04T07:57:11.028Z,87.45
2018-03-04T07:59:38.908Z,82.80
2018-03-04T08:02:06.827Z,72.97
2018-03-04T08:04:35.427Z,83.50
2018-03-04T08:07:04.238Z,79.87
2018-03-04T08:09:31.971Z,82.03
2018-03-04T08:11:59.536Z,80.62
2018-03-04T08:14:27.624Z,97.37
2018-03-04T08:16:55.687Z,84.60
2018-03-04T08:19:23.341Z,91.82
2018-03-04T08:21:51.236Z,85.53
2018-03-04T08:24:30.647Z,86.07
2018-03-04T08:40:24.510Z,91.95
2018-03-04T08:42:52.699Z,90.10
2018-03-04T08:45:20.267Z,98.62
2018-03-04T08:47:48.248Z,91.37
2018-03-04T08:50:15.804Z,91.40
2018-03-04T08:52:43.839Z,95.25
2018-03-04T08:55:12.032Z,92.62
2018-03-04T08:57:39.993Z,102.78
2018-03-04T09:00:08.217Z,81.25
2018-03-04T09:02:36.363Z,82.07
2018-03-04T09:05:04.123Z,90.95
2018-03-04T09:07:32.483Z,76.60
2018-03-04T09:10:00.885Z,100.03
2018-03-04T09:12:29.532Z,89.85
2018-03-04T09:14:57.856Z,103.03
2018-03-04T09:17:25.403Z,85.45
2018-03-04T09:19:52.990Z,92.37
2018-03-04T09:22:20.521Z,94.47
2018-03-04T09:24:48.067Z,94.07
2018-03-04T09:27:15.600Z,82.57
2018-03-04T09:29:43.997Z,93.47
2018-03-04T09:32:11.692Z,89.55
2018-03-04T09:34:39.793Z,99.70
2018-03-04T09:37:07.400Z,120.65
2018-03-04T09:39:35.091Z,150.57
2018-03-04T09:42:03.157Z,143.00
2018-03-04T09:44:30.751Z,145.03
2018-03-04T09:46:58.327Z,121.13
2018-03-04T09:49:26.645Z,98.63
2018-03-04T09:51:54.174Z,132.27
2018-03-04T09:54:22.505Z,109.68
2018-03-04T09:56:50.095Z,97.93
2018-03-04T09:59:17.762Z,90.93
2018-03-04T10:01:45.308Z,94.15
2018-03-04T10:04:12.842Z,88.57
2018-03-04T10:06:40.369Z,80.03
2018-03-04T10:09:08.661Z,91.28
2018-03-04T10:11:36.233Z,77.97
2018-03-04T10:14:03.768Z,82.30
2018-03-04T10:16:32.071Z,80.10
2018-03-04T10:18:59.593Z,87.05
2018-03-04T10:21:27.133Z,82.80
2018-03-04T10:23:54.651Z,90.35
2018-03-04T10:26:22.217Z,70.50
2018-03-04T10:28:49.848Z,85.28
2018-03-04T10:31:18.224Z,84.15
2018-03-04T10:33:46.530Z,74.83
2018-03-04T10:36:14.069Z,80.37
2018-03-04T10:38:42.377Z,92.30
2018-03-04T10:41:09.931Z,81.25
2018-03-04T10:43:37.450Z,86.28
2018-03-04T10:46:05.768Z,75.57
2018-03-04T10:48:33.442Z,85.18
2018-03-04T10:51:00.988Z,83.17
2018-03-04T10:53:28.562Z,86.87
2018-03-04T10:55:56.156Z,86.70
2018-03-04T10:58:23.712Z,84.37
2018-03-04T11:00:51.698Z,87.43
2018-03-04T11:03:19.240Z,86.60
2018-03-04T11:05:46.758Z,83.97
2018-03-04T11:08:14.272Z,83.05
2018-03-04T11:10:41.822Z,79.43
2018-03-04T11:13:09.449Z,82.67
2018-03-04T11:15:37.007Z,83.10
2018-03-04T11:18:04.537Z,83.67
2018-03-04T11:20:32.895Z,86.90
2018-03-04T11:23:00.548Z,78.07
2018-03-04T11:25:28.154Z,86.03
2018-03-04T11:27:55.846Z,82.90
2018-03-04T11:30:23.510Z,97.07
2018-03-04T11:32:51.137Z,87.40
2018-03-04T11:35:19.431Z,92.63
2018-03-04T11:37:46.974Z,77.43
2018-03-04T11:40:14.578Z,83.03
2018-03-04T11:42:42.156Z,91.17
2018-03-04T11:45:09.983Z,85.37
2018-03-04T11:47:37.546Z,82.10
2018-03-04T11:50:05.128Z,98.87
2018-03-04T11:52:32.696Z,86.87
2018-03-04T11:55:00.348Z,86.70
2018-03-04T11:57:27.875Z,87.00
2018-03-04T11:59:55.384Z,92.63
2018-03-04T12:02:22.912Z,84.57
2018-03-04T12:04:50.458Z,87.77
2018-03-04T12:07:17.996Z,81.40
2018-03-04T12:09:45.591Z,88.90
2018-03-04T12:12:13.294Z,80.97
2018-03-04T12:14:40.907Z,84.60
2018-03-04T12:17:08.589Z,90.20
2018-03-04T12:19:36.132Z,84.33
2018-03-04T12:22:03.706Z,80.77
2018-03-04T12:24:31.381Z,80.40
2018-03-04T12:26:58.912Z,82.60
2018-03-04T12:29:26.451Z,75.17
2018-03-04T12:31:54.066Z,79.03
2018-03-04T12:34:21.635Z,85.03
2018-03-04T12:36:49.221Z,89.35
2018-03-04T12:39:16.809Z,88.83
2018-03-04T12:41:45.236Z,76.33
2018-03-04T12:44:12.823Z,83.87
2018-03-04T12:46:40.357Z,92.20
2018-03-04T12:49:08.004Z,85.63
2018-03-04T12:51:35.584Z,83.73
2018-03-04T12:54:03.325Z,88.60
2018-03-04T12:56:30.904Z,85.67
2018-03-04T12:58:58.552Z,84.20
2018-03-04T13:01:27.043Z,87.40
2018-03-04T13:03:54.673Z,90.65
2018-03-04T13:06:22.233Z,85.70
2018-03-04T13:08:50.580Z,80.47
2018-03-04T13:11:18.181Z,89.20
2018-03-04T13:13:45.701Z,83.40
2018-03-04T13:16:13.268Z,84.30
2018-03-04T13:18:40.975Z,89.03
2018-03-04T13:21:08.550Z,76.07
2018-03-04T13:23:36.165Z,85.47
2018-03-04T13:26:03.805Z,87.30
2018-03-04T13:28:31.423Z,79.30
2018-03-04T13:30:59.018Z,75.13
2018-03-04T13:33:26.623Z,83.53
2018-03-04T13:35:54.982Z,84.50
2018-03-04T13:38:23.340Z,82.03
2018-03-04T13:40:50.933Z,90.27
2018-03-04T13:43:19.358Z,81.37
2018-03-04T13:45:46.931Z,88.27
2018-03-04T13:48:14.682Z,79.70
2018-03-04T13:50:42.387Z,94.20
2018-03-04T13:53:10.768Z,77.60
2018-03-04T13:55:38.388Z,94.83
2018-03-04T13:58:05.943Z,84.00
2018-03-04T14:00:33.540Z,91.23
2018-03-04T14:03:01.974Z,75.20
2018-03-04T14:05:29.516Z,76.97
2018-03-04T14:07:57.204Z,74.70
2018-03-04T14:10:24.765Z,84.03
2018-03-04T14:12:52.316Z,81.00
2018-03-04T14:15:19.843Z,84.80
2018-03-04T14:17:47.448Z,81.47
2018-03-04T14:20:15.012Z,80.53
2018-03-04T14:22:42.583Z,91.90
2018-03-04T14:25:10.970Z,71.27
2018-03-04T14:27:38.522Z,85.12
2018-03-04T14:30:06.143Z,81.57
2018-03-04T14:32:34.553Z,80.80
2018-03-04T14:35:02.120Z,86.80
2018-03-04T14:37:29.732Z,85.40
2018-03-04T14:39:57.424Z,80.57
2018-03-04T14:42:25.078Z,89.50
2018-03-04T14:44:53.613Z,86.70
2018-03-04T14:47:21.230Z,84.03
2018-03-04T14:49:49.591Z,88.77
2018-03-04T14:52:17.171Z,84.00
2018-03-04T14:54:44.856Z,72.77
2018-03-04T14:57:12.612Z,81.95
2018-03-04T14:59:40.202Z,80.17
2018-03-04T15:02:08.260Z,82.33
2018-03-04T15:04:35.812Z,76.87
2018-03-04T15:07:03.385Z,74.03
2018-03-04T15:09:30.964Z,81.10
2018-03-04T15:11:59.173Z,73.30
2018-03-04T15:14:27.552Z,68.60
2018-03-04T15:16:55.879Z,75.60
2018-03-04T15:19:23.495Z,65.73
2018-03-04T15:21:51.131Z,71.32
2018-03-04T15:24:18.682Z,70.60
2018-03-04T15:26:46.203Z,66.27
2018-03-04T15:29:13.740Z,69.97
2018-03-04T15:31:42.030Z,74.78
2018-03-04T15:34:09.572Z,75.28
2018-03-04T15:36:38.223Z,67.67
2018-03-04T15:39:05.736Z,71.63
2018-03-04T15:41:34.028Z,67.70
2018-03-04T15:44:01.589Z,71.50
2018-03-04T15:46:29.103Z,76.18
2018-03-04T15:48:56.812Z,74.78
2018-03-04T15:51:24.430Z,71.00
2018-03-04T15:53:52.048Z,66.73
2018-03-04T15:56:19.566Z,66.07
2018-03-04T15:58:47.111Z,77.93
2018-03-04T16:01:14.720Z,70.70
2018-03-04T16:03:42.303Z,80.80
2018-03-04T16:06:09.815Z,68.50
2018-03-04T16:08:38.115Z,73.30
2018-03-04T16:11:05.671Z,76.13
2018-03-04T16:13:33.235Z,69.30
2018-03-04T16:16:00.762Z,67.23
2018-03-04T16:18:28.292Z,71.93
2018-03-04T16:20:55.949Z,64.90
2018-03-04T16:23:23.464Z,76.82
2018-03-04T16:25:51.735Z,67.03
2018-03-04T16:28:20.042Z,73.23
2018-03-04T16:30:47.611Z,69.57
2018-03-04T16:33:15.157Z,69.77
2018-03-04T16:35:42.707Z,62.63
2018-03-04T16:38:10.226Z,71.20
2018-03-04T16:40:37.775Z,71.87
2018-03-04T16:43:05.303Z,69.30
2018-03-04T16:45:32.856Z,70.83
2018-03-04T16:48:00.381Z,66.17
2018-03-04T16:50:27.984Z,76.10
2018-03-04T16:52:55.548Z,69.80
2018-03-04T16:55:23.060Z,67.87
2018-03-04T16:57:50.664Z,65.90
2018-03-04T17:00:18.206Z,75.37
2018-03-04T17:02:45.801Z,58.87
2018-03-04T17:05:13.352Z,71.97
2018-03-04T17:07:40.884Z,64.80
2018-03-04T17:10:08.468Z,66.10
2018-03-04T17:12:35.984Z,69.37
2018-03-04T17:15:03.591Z,66.60
2018-03-04T17:17:31.152Z,67.80
2018-03-04T17:19:58.674Z,69.97
2018-03-04T17:22:27.024Z,69.10
2018-03-04T17:24:54.657Z,71.83
2018-03-04T17:27:22.226Z,66.30
2018-03-04T17:29:49.760Z,74.37
2018-03-04T17:32:17.302Z,81.78
2018-03-04T17:34:45.615Z,70.00
2018-03-04T17:37:13.201Z,73.85
2018-03-04T17:39:40.744Z,70.30
2018-03-04T17:42:08.392Z,65.30
2018-03-04T17:44:35.927Z,73.97
2018-03-04T17:47:04.226Z,59.67
2018-03-04T17:49:31.806Z,70.15
2018-03-04T17:51:59.373Z,74.00
2018-03-04T17:54:26.963Z,64.03
2018-03-04T17:56:54.493Z,74.85
2018-03-04T17:59:22.054Z,76.93
2018-03-04T18:01:49.588Z,74.37
2018-03-04T18:04:17.119Z,83.53
2018-03-04T18:06:45.438Z,73.40
2018-03-04T18:09:13.020Z,77.97
2018-03-04T18:11:40.565Z,75.43
2018-03-04T18:14:08.148Z,75.60
2018-03-04T18:16:35.790Z,71.50
2018-03-04T18:19:03.336Z,82.50
2018-03-04T18:21:30.861Z,85.80
2018-03-04T18:23:59.285Z,73.62
2018-03-04T18:26:26.817Z,87.57
2018-03-04T18:28:54.414Z,73.83
2018-03-04T18:31:21.965Z,81.00
2018-03-04T18:33:49.509Z,83.45
2018-03-04T18:36:17.085Z,80.47
2018-03-04T18:38:44.657Z,74.53
2018-03-04T18:41:12.197Z,70.30
2018-03-04T18:43:39.780Z,74.62
2018-03-04T18:46:07.358Z,75.43
2018-03-04T18:48:34.948Z,65.93
2018-03-04T18:51:03.459Z,58.53
2018-03-04T18:53:31.052Z,64.75
2018-03-04T18:55:58.577Z,62.42
2018-03-04T18:58:26.100Z,65.68
2018-03-04T19:00:54.432Z,64.03
2018-03-04T19:03:22.004Z,64.32
2018-03-04T19:05:49.559Z,65.40
2018-03-04T19:08:17.112Z,65.85
2018-03-04T19:10:44.647Z,64.20
2018-03-04T19:13:12.974Z,68.15
2018-03-04T19:15:40.505Z,66.95
2018-03-04T19:18:08.037Z,66.20
2018-03-04T19:20:36.369Z,72.68
2018-03-04T19:23:03.889Z,71.03
2018-03-04T19:25:32.304Z,74.00
2018-03-04T19:27:59.835Z,70.05
2018-03-04T19:30:27.364Z,69.53
2018-03-04T19:32:54.932Z,72.95
2018-03-04T19:35:23.389Z,70.30
2018-03-04T19:37:50.923Z,73.87
2018-03-04T19:40:18.502Z,71.43
2018-03-04T19:42:46.085Z,66.62
2018-03-04T19:45:13.745Z,66.78
2018-03-04T19:47:41.268Z,73.53
2018-03-04T19:50:08.955Z,82.65
2018-03-04T19:52:36.535Z,73.90
2018-03-04T19:55:04.098Z,70.43
2018-03-04T19:57:31.664Z,73.22
2018-03-04T20:00:00.001Z,75.30
2018-03-04T20:02:27.533Z,67.20
2018-03-04T20:04:55.130Z,71.57
2018-03-04T20:07:22.685Z,62.42
2018-03-04T20:09:51.053Z,60.80
2018-03-04T20:12:18.624Z,65.60
2018-03-04T20:14:46.164Z,67.00
2018-03-04T20:17:13.727Z,64.32
2018-03-04T20:19:41.256Z,63.00
2018-03-04T20:22:08.858Z,64.43
2018-03-04T20:24:36.394Z,65.15
2018-03-04T20:27:03.968Z,64.27
2018-03-04T20:29:31.530Z,59.53
2018-03-04T20:31:59.088Z,64.57
2018-03-04T20:34:26.876Z,69.62
2018-03-04T20:36:54.438Z,63.83
2018-03-04T20:39:21.996Z,65.65
2018-03-04T20:41:49.558Z,59.38
2018-03-04T20:44:17.115Z,63.35
2018-03-04T20:46:44.658Z,61.15
2018-03-04T20:49:12.172Z,64.37
2018-03-04T20:51:39.755Z,64.68
2018-03-04T20:54:08.074Z,64.25
2018-03-04T20:56:35.632Z,61.47
2018-03-04T20:59:03.245Z,58.05
2018-03-04T21:01:30.933Z,57.22
2018-03-04T21:03:58.530Z,51.55
2018-03-04T21:06:26.792Z,57.20
2018-03-04T21:08:54.312Z,58.67
2018-03-04T21:11:21.860Z,52.72
2018-03-04T21:13:50.144Z,54.25
2018-03-04T21:16:18.462Z,58.55
2018-03-04T21:18:45.983Z,56.13
2018-03-04T21:21:14.290Z,60.63
2018-03-04T21:23:41.813Z,57.45
2018-03-04T21:26:09.575Z,61.65
2018-03-04T21:28:37.131Z,61.47
2018-03-04T21:31:04.938Z,60.22
2018-03-04T21:33:32.586Z,76.10
2018-03-04T21:36:00.938Z,66.07
2018-03-04T21:38:29.278Z,72.10
2018-03-04T21:40:56.813Z,81.43
2018-03-04T21:43:24.479Z,71.93
2018-03-04T21:45:52.026Z,72.22
2018-03-04T21:48:20.311Z,78.07
2018-03-04T21:50:47.892Z,82.82
2018-03-04T21:53:15.453Z,82.20
2018-03-04T21:55:43.026Z,82.93
2018-03-04T21:58:10.605Z,72.10
2018-03-04T22:00:38.187Z,79.43
2018-03-04T22:03:06.647Z,77.82
2018-03-04T22:05:34.285Z,83.10
2018-03-04T22:08:01.864Z,78.28
2018-03-04T22:10:29.390Z,78.85
2018-03-04T22:12:56.977Z,79.50
2018-03-04T22:15:24.557Z,84.40
2018-03-04T22:17:52.194Z,81.50
2018-03-04T22:20:19.757Z,82.22
2018-03-04T22:22:47.329Z,84.20
2018-03-04T22:25:14.980Z,78.80
2018-03-04T22:27:42.555Z,81.18
2018-03-04T22:30:10.071Z,82.62
2018-03-04T22:32:38.371Z,81.53
2018-03-04T22:35:05.914Z,84.60
2018-03-04T22:37:33.460Z,81.70
2018-03-04T22:40:01.007Z,82.20
2018-03-04T22:42:28.526Z,84.00
2018-03-04T22:44:56.050Z,76.87
2018-03-04T22:47:23.743Z,79.30
2018-03-04T22:49:51.309Z,79.28
2018-03-04T22:52:18.868Z,86.68
2018-03-04T22:54:46.407Z,79.00
2018-03-04T22:57:13.958Z,75.82
2018-03-04T22:59:41.558Z,83.87
2018-03-04T23:02:09.105Z,86.13
2018-03-04T23:04:36.714Z,78.80
2018-03-04T23:07:05.070Z,80.93
2018-03-04T23:09:32.693Z,92.45
2018-03-04T23:12:00.269Z,80.27
2018-03-04T23:14:27.936Z,88.53
2018-03-04T23:16:55.594Z,88.70
2018-03-04T23:19:23.195Z,82.00
2018-03-04T23:21:51.539Z,72.95
2018-03-04T23:24:19.866Z,81.65
2018-03-04T23:26:48.215Z,90.20
2018-03-04T23:29:15.860Z,87.27
2018-03-04T23:31:43.516Z,80.87
2018-03-04T23:34:11.144Z,82.82
2018-03-04T23:36:39.473Z,84.82
2018-03-04T23:39:07.045Z,84.20
2018-03-04T23:41:34.597Z,91.18
2018-03-04T23:44:02.165Z,86.97
2018-03-04T23:46:30.018Z,85.90
2018-03-04T23:48:57.587Z,88.40
2018-03-04T23:51:25.172Z,80.23
2018-03-04T23:53:52.721Z,92.47
2018-03-04T23:56:20.327Z,84.78
2018-03-04T23:58:48.048Z,87.37
